sensor_id;sensor_type;location;lat;lon;timestamp;temperature;humidity
23507;DHT22;11930;53.076;18.250;2023-08-07T00:02:14;13.70;99.90
23507;DHT22;11930;53.076;18.250;2023-08-07T00:04:41;13.70;99.90
23507;DHT22;11930;53.076;18.250;2023-08-07T00:07:07;13.70;99.90
23507;DHT22;11930;53.076;18.250;2023-08-07T00:09:33;13.60;99.90
23507;DHT22;11930;53.076;18.250;2023-08-07T00:11:59;13.70;99.90
23507;DHT22;11930;53.076;18.250;2023-08-07T00:14:25;13.70;99.90
23507;DHT22;11930;53.076;18.250;2023-08-07T00:16:51;13.70;99.90
23507;DHT22;11930;53.076;18.250;2023-08-07T00:19:17;13.70;99.90
23507;DHT22;11930;53.076;18.250;2023-08-07T00:21:43;13.70;99.90
23507;DHT22;11930;53.076;18.250;2023-08-07T00:24:09;13.60;99.90
23507;DHT22;11930;53.076;18.250;2023-08-07T00:29:01;13.60;99.90
23507;DHT22;11930;53.076;18.250;2023-08-07T00:31:27;13.60;99.90
23507;DHT22;11930;53.076;18.250;2023-08-07T00:33:57;13.60;99.90
23507;DHT22;11930;53.076;18.250;2023-08-07T00:36:23;13.60;99.90
23507;DHT22;11930;53.076;18.250;2023-08-07T00:38:50;13.60;99.90
23507;DHT22;11930;53.076;18.250;2023-08-07T00:41:17;13.60;99.90
23507;DHT22;11930;53.076;18.250;2023-08-07T00:43:44;13.60;99.90
23507;DHT22;11930;53.076;18.250;2023-08-07T00:46:10;13.60;99.90
23507;DHT22;11930;53.076;18.250;2023-08-07T00:48:36;13.60;99.90
23507;DHT22;11930;53.076;18.250;2023-08-07T00:51:03;13.60;99.90
23507;DHT22;11930;53.076;18.250;2023-08-07T00:53:31;13.60;99.90
23507;DHT22;11930;53.076;18.250;2023-08-07T00:55:57;13.60;99.90
23507;DHT22;11930;53.076;18.250;2023-08-07T00:58:24;13.60;99.90
23507;DHT22;11930;53.076;18.250;2023-08-07T01:00:50;13.60;99.90
23507;DHT22;11930;53.076;18.250;2023-08-07T01:03:16;13.60;99.90
23507;DHT22;11930;53.076;18.250;2023-08-07T01:05:42;13.60;99.90
23507;DHT22;11930;53.076;18.250;2023-08-07T01:08:09;13.60;99.90
23507;DHT22;11930;53.076;18.250;2023-08-07T01:11:13;13.50;99.90
23507;DHT22;11930;53.076;18.250;2023-08-07T01:13:51;13.50;99.90
23507;DHT22;11930;53.076;18.250;2023-08-07T01:16:35;13.50;99.90
23507;DHT22;11930;53.076;18.250;2023-08-07T01:19:03;13.50;99.90
23507;DHT22;11930;53.076;18.250;2023-08-07T01:21:32;13.50;99.90
23507;DHT22;11930;53.076;18.250;2023-08-07T01:23:59;13.50;99.90
23507;DHT22;11930;53.076;18.250;2023-08-07T01:26:25;13.50;99.90
23507;DHT22;11930;53.076;18.250;2023-08-07T01:29:06;13.50;99.90
23507;DHT22;11930;53.076;18.250;2023-08-07T01:31:36;13.50;99.90
23507;DHT22;11930;53.076;18.250;2023-08-07T01:34:07;13.50;99.90
23507;DHT22;11930;53.076;18.250;2023-08-07T01:36:34;13.50;99.90
23507;DHT22;11930;53.076;18.250;2023-08-07T01:39:01;13.50;99.90
23507;DHT22;11930;53.076;18.250;2023-08-07T01:41:30;13.50;99.90
23507;DHT22;11930;53.076;18.250;2023-08-07T01:43:57;13.50;99.90
23507;DHT22;11930;53.076;18.250;2023-08-07T01:46:23;13.50;99.90
23507;DHT22;11930;53.076;18.250;2023-08-07T01:48:49;13.50;99.90
23507;DHT22;11930;53.076;18.250;2023-08-07T01:51:15;13.50;99.90
23507;DHT22;11930;53.076;18.250;2023-08-07T01:53:41;13.50;99.90
23507;DHT22;11930;53.076;18.250;2023-08-07T01:56:07;13.50;99.90
23507;DHT22;11930;53.076;18.250;2023-08-07T01:58:33;13.50;99.90
23507;DHT22;11930;53.076;18.250;2023-08-07T02:00:59;13.50;99.90
23507;DHT22;11930;53.076;18.250;2023-08-07T02:03:25;13.50;99.90
23507;DHT22;11930;53.076;18.250;2023-08-07T02:05:52;13.50;99.90
23507;DHT22;11930;53.076;18.250;2023-08-07T02:08:18;13.40;99.90
23507;DHT22;11930;53.076;18.250;2023-08-07T02:10:44;13.40;99.90
23507;DHT22;11930;53.076;18.250;2023-08-07T02:13:10;13.40;99.90
23507;DHT22;11930;53.076;18.250;2023-08-07T02:15:36;13.50;99.90
23507;DHT22;11930;53.076;18.250;2023-08-07T02:18:03;13.50;99.90
23507;DHT22;11930;53.076;18.250;2023-08-07T02:20:28;13.40;99.90
23507;DHT22;11930;53.076;18.250;2023-08-07T02:22:55;13.50;99.90
23507;DHT22;11930;53.076;18.250;2023-08-07T02:25:21;13.40;99.90
23507;DHT22;11930;53.076;18.250;2023-08-07T02:27:47;13.50;99.90
23507;DHT22;11930;53.076;18.250;2023-08-07T02:30:12;13.40;99.90
23507;DHT22;11930;53.076;18.250;2023-08-07T02:32:39;13.40;99.90
23507;DHT22;11930;53.076;18.250;2023-08-07T02:35:07;13.40;99.90
23507;DHT22;11930;53.076;18.250;2023-08-07T02:37:34;13.40;99.90
23507;DHT22;11930;53.076;18.250;2023-08-07T02:40:00;13.40;99.90
23507;DHT22;11930;53.076;18.250;2023-08-07T02:42:26;13.40;99.90
23507;DHT22;11930;53.076;18.250;2023-08-07T02:44:52;13.40;99.90
23507;DHT22;11930;53.076;18.250;2023-08-07T02:47:18;13.40;99.90
23507;DHT22;11930;53.076;18.250;2023-08-07T02:49:44;13.40;99.90
23507;DHT22;11930;53.076;18.250;2023-08-07T02:52:11;13.40;99.90
23507;DHT22;11930;53.076;18.250;2023-08-07T02:54:37;13.40;99.90
23507;DHT22;11930;53.076;18.250;2023-08-07T02:57:03;13.40;99.90
23507;DHT22;11930;53.076;18.250;2023-08-07T02:59:29;13.40;99.90
23507;DHT22;11930;53.076;18.250;2023-08-07T03:01:56;13.40;99.90
23507;DHT22;11930;53.076;18.250;2023-08-07T03:04:22;13.50;99.90
23507;DHT22;11930;53.076;18.250;2023-08-07T03:06:48;13.40;99.90
23507;DHT22;11930;53.076;18.250;2023-08-07T03:09:14;13.40;99.90
23507;DHT22;11930;53.076;18.250;2023-08-07T03:11:40;13.40;99.90
23507;DHT22;11930;53.076;18.250;2023-08-07T03:14:06;13.40;99.90
23507;DHT22;11930;53.076;18.250;2023-08-07T03:16:33;13.40;99.90
23507;DHT22;11930;53.076;18.250;2023-08-07T03:18:58;13.40;99.90
23507;DHT22;11930;53.076;18.250;2023-08-07T03:21:25;13.40;99.90
23507;DHT22;11930;53.076;18.250;2023-08-07T03:23:51;13.40;99.90
23507;DHT22;11930;53.076;18.250;2023-08-07T03:26:17;13.40;99.90
23507;DHT22;11930;53.076;18.250;2023-08-07T03:28:43;13.40;99.90
23507;DHT22;11930;53.076;18.250;2023-08-07T03:31:12;13.40;99.90
23507;DHT22;11930;53.076;18.250;2023-08-07T03:33:38;13.40;99.90
23507;DHT22;11930;53.076;18.250;2023-08-07T03:36:05;13.40;99.90
23507;DHT22;11930;53.076;18.250;2023-08-07T03:38:32;13.40;99.90
23507;DHT22;11930;53.076;18.250;2023-08-07T03:40:59;13.40;99.90
23507;DHT22;11930;53.076;18.250;2023-08-07T03:43:25;13.40;99.90
23507;DHT22;11930;53.076;18.250;2023-08-07T03:45:55;13.40;99.90
23507;DHT22;11930;53.076;18.250;2023-08-07T03:48:22;13.40;99.90
23507;DHT22;11930;53.076;18.250;2023-08-07T03:50:48;13.50;99.90
23507;DHT22;11930;53.076;18.250;2023-08-07T03:53:16;13.40;99.90
23507;DHT22;11930;53.076;18.250;2023-08-07T03:55:50;13.50;99.90
23507;DHT22;11930;53.076;18.250;2023-08-07T03:58:17;13.40;99.90
23507;DHT22;11930;53.076;18.250;2023-08-07T04:00:43;13.50;99.90
23507;DHT22;11930;53.076;18.250;2023-08-07T04:03:10;13.50;99.90
23507;DHT22;11930;53.076;18.250;2023-08-07T04:05:37;13.50;99.90
23507;DHT22;11930;53.076;18.250;2023-08-07T04:08:03;13.50;99.90
23507;DHT22;11930;53.076;18.250;2023-08-07T04:10:29;13.50;99.90
23507;DHT22;11930;53.076;18.250;2023-08-07T04:12:55;13.50;99.90
23507;DHT22;11930;53.076;18.250;2023-08-07T04:15:21;13.60;99.90
23507;DHT22;11930;53.076;18.250;2023-08-07T04:17:47;13.50;99.90
23507;DHT22;11930;53.076;18.250;2023-08-07T04:20:13;13.60;99.90
23507;DHT22;11930;53.076;18.250;2023-08-07T04:22:39;13.60;99.90
23507;DHT22;11930;53.076;18.250;2023-08-07T04:25:06;13.50;99.90
23507;DHT22;11930;53.076;18.250;2023-08-07T04:27:32;13.60;99.90
23507;DHT22;11930;53.076;18.250;2023-08-07T04:29:59;13.60;99.90
23507;DHT22;11930;53.076;18.250;2023-08-07T04:32:25;13.60;99.90
23507;DHT22;11930;53.076;18.250;2023-08-07T04:34:52;13.60;99.90
23507;DHT22;11930;53.076;18.250;2023-08-07T04:37:18;13.60;99.90
23507;DHT22;11930;53.076;18.250;2023-08-07T04:39:44;13.60;99.90
23507;DHT22;11930;53.076;18.250;2023-08-07T04:42:10;13.60;99.90
23507;DHT22;11930;53.076;18.250;2023-08-07T04:44:36;13.60;99.90
23507;DHT22;11930;53.076;18.250;2023-08-07T04:47:02;13.50;99.90
23507;DHT22;11930;53.076;18.250;2023-08-07T04:49:28;13.50;99.90
23507;DHT22;11930;53.076;18.250;2023-08-07T04:51:54;13.50;99.90
23507;DHT22;11930;53.076;18.250;2023-08-07T04:54:20;13.50;99.90
23507;DHT22;11930;53.076;18.250;2023-08-07T04:56:46;13.50;99.90
23507;DHT22;11930;53.076;18.250;2023-08-07T04:59:13;13.40;99.90
23507;DHT22;11930;53.076;18.250;2023-08-07T05:01:38;13.40;99.90
23507;DHT22;11930;53.076;18.250;2023-08-07T05:04:05;13.40;99.90
23507;DHT22;11930;53.076;18.250;2023-08-07T05:06:31;13.40;99.90
23507;DHT22;11930;53.076;18.250;2023-08-07T05:08:58;13.30;99.90
23507;DHT22;11930;53.076;18.250;2023-08-07T05:11:24;13.30;99.90
23507;DHT22;11930;53.076;18.250;2023-08-07T05:13:50;13.30;99.90
23507;DHT22;11930;53.076;18.250;2023-08-07T05:16:16;13.30;99.90
23507;DHT22;11930;53.076;18.250;2023-08-07T05:18:44;13.30;99.90
23507;DHT22;11930;53.076;18.250;2023-08-07T05:21:10;13.30;99.90
23507;DHT22;11930;53.076;18.250;2023-08-07T05:23:37;13.40;99.90
23507;DHT22;11930;53.076;18.250;2023-08-07T05:26:03;13.30;99.90
23507;DHT22;11930;53.076;18.250;2023-08-07T05:28:29;13.30;99.90
23507;DHT22;11930;53.076;18.250;2023-08-07T05:30:55;13.30;99.90
23507;DHT22;11930;53.076;18.250;2023-08-07T05:33:22;13.30;99.90
23507;DHT22;11930;53.076;18.250;2023-08-07T05:35:48;13.40;99.90
23507;DHT22;11930;53.076;18.250;2023-08-07T05:38:14;13.40;99.90
23507;DHT22;11930;53.076;18.250;2023-08-07T05:40:40;13.40;99.90
23507;DHT22;11930;53.076;18.250;2023-08-07T05:43:06;13.50;99.90
23507;DHT22;11930;53.076;18.250;2023-08-07T05:45:32;13.50;99.90
23507;DHT22;11930;53.076;18.250;2023-08-07T05:47:58;13.60;99.90
23507;DHT22;11930;53.076;18.250;2023-08-07T05:50:24;13.60;99.90
23507;DHT22;11930;53.076;18.250;2023-08-07T05:52:50;13.60;99.90
23507;DHT22;11930;53.076;18.250;2023-08-07T05:55:16;13.70;99.90
23507;DHT22;11930;53.076;18.250;2023-08-07T05:57:42;13.70;99.90
23507;DHT22;11930;53.076;18.250;2023-08-07T06:00:09;13.70;99.90
23507;DHT22;11930;53.076;18.250;2023-08-07T06:02:40;13.70;99.90
23507;DHT22;11930;53.076;18.250;2023-08-07T06:05:06;13.70;99.90
23507;DHT22;11930;53.076;18.250;2023-08-07T06:07:34;13.70;99.90
23507;DHT22;11930;53.076;18.250;2023-08-07T06:10:00;13.70;99.90
23507;DHT22;11930;53.076;18.250;2023-08-07T06:12:26;13.70;99.90
23507;DHT22;11930;53.076;18.250;2023-08-07T06:14:52;13.70;99.90
23507;DHT22;11930;53.076;18.250;2023-08-07T06:17:18;13.60;99.90
23507;DHT22;11930;53.076;18.250;2023-08-07T06:19:44;13.70;99.90
23507;DHT22;11930;53.076;18.250;2023-08-07T06:22:10;13.70;99.90
23507;DHT22;11930;53.076;18.250;2023-08-07T06:24:36;13.70;99.90
23507;DHT22;11930;53.076;18.250;2023-08-07T06:27:03;13.60;99.90
23507;DHT22;11930;53.076;18.250;2023-08-07T06:29:29;13.70;99.90
23507;DHT22;11930;53.076;18.250;2023-08-07T06:31:55;13.70;99.90
23507;DHT22;11930;53.076;18.250;2023-08-07T06:34:21;13.70;99.90
23507;DHT22;11930;53.076;18.250;2023-08-07T06:36:47;13.90;99.90
23507;DHT22;11930;53.076;18.250;2023-08-07T06:39:13;13.90;99.90
23507;DHT22;11930;53.076;18.250;2023-08-07T06:41:40;13.90;99.90
23507;DHT22;11930;53.076;18.250;2023-08-07T06:44:06;14.00;99.90
23507;DHT22;11930;53.076;18.250;2023-08-07T06:46:32;14.00;99.90
23507;DHT22;11930;53.076;18.250;2023-08-07T06:48:58;14.10;99.90
23507;DHT22;11930;53.076;18.250;2023-08-07T06:51:24;14.20;99.90
23507;DHT22;11930;53.076;18.250;2023-08-07T06:53:50;14.30;99.90
23507;DHT22;11930;53.076;18.250;2023-08-07T06:56:17;14.40;99.90
23507;DHT22;11930;53.076;18.250;2023-08-07T06:58:43;14.50;99.90
23507;DHT22;11930;53.076;18.250;2023-08-07T07:01:10;14.60;99.90
23507;DHT22;11930;53.076;18.250;2023-08-07T07:03:36;14.80;99.90
23507;DHT22;11930;53.076;18.250;2023-08-07T07:06:02;14.90;99.90
23507;DHT22;11930;53.076;18.250;2023-08-07T07:08:28;15.10;99.90
23507;DHT22;11930;53.076;18.250;2023-08-07T07:10:54;15.30;99.90
23507;DHT22;11930;53.076;18.250;2023-08-07T07:13:20;15.40;99.90
23507;DHT22;11930;53.076;18.250;2023-08-07T07:15:51;15.40;99.90
23507;DHT22;11930;53.076;18.250;2023-08-07T07:18:17;15.40;99.90
23507;DHT22;11930;53.076;18.250;2023-08-07T07:20:44;15.40;99.90
23507;DHT22;11930;53.076;18.250;2023-08-07T07:23:10;15.40;99.90
23507;DHT22;11930;53.076;18.250;2023-08-07T07:25:36;15.40;99.90
23507;DHT22;11930;53.076;18.250;2023-08-07T07:28:02;15.40;99.90
23507;DHT22;11930;53.076;18.250;2023-08-07T07:30:28;15.40;99.90
23507;DHT22;11930;53.076;18.250;2023-08-07T07:32:54;15.50;99.90
23507;DHT22;11930;53.076;18.250;2023-08-07T07:35:21;15.60;99.90
23507;DHT22;11930;53.076;18.250;2023-08-07T07:37:47;15.90;99.90
23507;DHT22;11930;53.076;18.250;2023-08-07T07:40:13;16.20;99.90
23507;DHT22;11930;53.076;18.250;2023-08-07T07:42:39;16.30;99.90
23507;DHT22;11930;53.076;18.250;2023-08-07T07:45:05;16.70;99.90
23507;DHT22;11930;53.076;18.250;2023-08-07T07:47:31;16.90;99.90
23507;DHT22;11930;53.076;18.250;2023-08-07T07:50:08;17.00;99.90
23507;DHT22;11930;53.076;18.250;2023-08-07T07:52:34;17.10;99.90
23507;DHT22;11930;53.076;18.250;2023-08-07T07:55:00;17.20;99.90
23507;DHT22;11930;53.076;18.250;2023-08-07T07:57:26;17.20;99.90
23507;DHT22;11930;53.076;18.250;2023-08-07T07:59:53;17.10;99.90
23507;DHT22;11930;53.076;18.250;2023-08-07T08:02:19;17.00;99.90
23507;DHT22;11930;53.076;18.250;2023-08-07T08:04:45;16.90;99.90
23507;DHT22;11930;53.076;18.250;2023-08-07T08:07:12;16.90;99.90
23507;DHT22;11930;53.076;18.250;2023-08-07T08:09:38;16.90;99.90
23507;DHT22;11930;53.076;18.250;2023-08-07T08:12:04;17.00;99.90
23507;DHT22;11930;53.076;18.250;2023-08-07T08:14:31;17.10;99.90
23507;DHT22;11930;53.076;18.250;2023-08-07T08:16:56;17.20;99.90
23507;DHT22;11930;53.076;18.250;2023-08-07T08:19:23;17.40;99.90
23507;DHT22;11930;53.076;18.250;2023-08-07T08:21:49;17.60;99.90
23507;DHT22;11930;53.076;18.250;2023-08-07T08:24:15;17.40;99.90
23507;DHT22;11930;53.076;18.250;2023-08-07T08:26:41;17.90;99.90
23507;DHT22;11930;53.076;18.250;2023-08-07T08:29:07;18.10;99.90
23507;DHT22;11930;53.076;18.250;2023-08-07T08:31:36;18.40;99.90
23507;DHT22;11930;53.076;18.250;2023-08-07T08:34:02;18.70;99.90
23507;DHT22;11930;53.076;18.250;2023-08-07T08:36:29;19.20;99.90
23507;DHT22;11930;53.076;18.250;2023-08-07T08:38:56;19.50;99.90
23507;DHT22;11930;53.076;18.250;2023-08-07T08:43:49;20.00;99.90
23507;DHT22;11930;53.076;18.250;2023-08-07T08:46:19;20.10;99.90
23507;DHT22;11930;53.076;18.250;2023-08-07T08:48:50;20.00;99.90
23507;DHT22;11930;53.076;18.250;2023-08-07T08:51:17;19.90;99.90
23507;DHT22;11930;53.076;18.250;2023-08-07T08:53:46;19.80;99.90
23507;DHT22;11930;53.076;18.250;2023-08-07T08:56:12;19.60;99.90
23507;DHT22;11930;53.076;18.250;2023-08-07T08:58:39;19.50;99.90
23507;DHT22;11930;53.076;18.250;2023-08-07T09:01:08;19.50;99.90
23507;DHT22;11930;53.076;18.250;2023-08-07T09:03:35;19.50;99.90
23507;DHT22;11930;53.076;18.250;2023-08-07T09:06:01;19.60;99.90
23507;DHT22;11930;53.076;18.250;2023-08-07T09:08:28;19.70;99.90
23507;DHT22;11930;53.076;18.250;2023-08-07T09:10:56;19.90;99.90
23507;DHT22;11930;53.076;18.250;2023-08-07T09:13:23;19.90;99.90
23507;DHT22;11930;53.076;18.250;2023-08-07T09:15:51;19.90;99.90
23507;DHT22;11930;53.076;18.250;2023-08-07T09:18:18;19.90;99.90
23507;DHT22;11930;53.076;18.250;2023-08-07T09:20:46;19.80;99.90
23507;DHT22;11930;53.076;18.250;2023-08-07T09:23:12;19.60;99.90
23507;DHT22;11930;53.076;18.250;2023-08-07T09:25:38;19.50;99.90
23507;DHT22;11930;53.076;18.250;2023-08-07T09:28:05;19.40;99.90
23507;DHT22;11930;53.076;18.250;2023-08-07T09:30:32;19.50;99.90
23507;DHT22;11930;53.076;18.250;2023-08-07T09:33:00;19.60;99.90
23507;DHT22;11930;53.076;18.250;2023-08-07T09:35:27;20.10;99.90
23507;DHT22;11930;53.076;18.250;2023-08-07T09:37:56;20.10;99.90
23507;DHT22;11930;53.076;18.250;2023-08-07T09:40:22;20.30;99.90
23507;DHT22;11930;53.076;18.250;2023-08-07T09:42:51;20.20;99.90
23507;DHT22;11930;53.076;18.250;2023-08-07T09:45:22;20.20;99.90
23507;DHT22;11930;53.076;18.250;2023-08-07T09:48:01;20.20;99.90
23507;DHT22;11930;53.076;18.250;2023-08-07T09:50:28;20.30;99.90
23507;DHT22;11930;53.076;18.250;2023-08-07T09:52:56;20.30;99.90
23507;DHT22;11930;53.076;18.250;2023-08-07T09:55:24;20.30;99.90
23507;DHT22;11930;53.076;18.250;2023-08-07T09:57:50;20.20;99.90
23507;DHT22;11930;53.076;18.250;2023-08-07T10:00:17;20.10;99.90
23507;DHT22;11930;53.076;18.250;2023-08-07T10:02:49;20.00;99.90
23507;DHT22;11930;53.076;18.250;2023-08-07T10:05:16;20.00;99.90
23507;DHT22;11930;53.076;18.250;2023-08-07T10:07:43;20.00;99.90
23507;DHT22;11930;53.076;18.250;2023-08-07T10:10:10;20.00;99.90
23507;DHT22;11930;53.076;18.250;2023-08-07T10:12:37;19.90;99.90
23507;DHT22;11930;53.076;18.250;2023-08-07T10:15:04;19.70;99.90
23507;DHT22;11930;53.076;18.250;2023-08-07T10:17:32;19.50;99.90
23507;DHT22;11930;53.076;18.250;2023-08-07T10:19:58;19.20;99.90
23507;DHT22;11930;53.076;18.250;2023-08-07T10:22:26;18.90;99.90
23507;DHT22;11930;53.076;18.250;2023-08-07T10:24:53;18.60;99.90
23507;DHT22;11930;53.076;18.250;2023-08-07T10:27:21;18.20;99.90
23507;DHT22;11930;53.076;18.250;2023-08-07T10:29:50;17.90;99.90
23507;DHT22;11930;53.076;18.250;2023-08-07T10:32:20;17.60;99.90
23507;DHT22;11930;53.076;18.250;2023-08-07T10:34:47;17.20;99.90
23507;DHT22;11930;53.076;18.250;2023-08-07T10:40:03;17.00;99.90
23507;DHT22;11930;53.076;18.250;2023-08-07T10:45:18;16.80;99.90
23507;DHT22;11930;53.076;18.250;2023-08-07T10:48:13;16.70;99.90
23507;DHT22;11930;53.076;18.250;2023-08-07T10:53:30;16.60;99.90
23507;DHT22;11930;53.076;18.250;2023-08-07T10:55:57;16.60;99.90
23507;DHT22;11930;53.076;18.250;2023-08-07T10:58:31;16.70;99.90
23507;DHT22;11930;53.076;18.250;2023-08-07T11:01:19;16.70;99.90
23507;DHT22;11930;53.076;18.250;2023-08-07T11:06:23;16.80;99.90
23507;DHT22;11930;53.076;18.250;2023-08-07T11:08:50;16.80;99.90
23507;DHT22;11930;53.076;18.250;2023-08-07T11:11:17;16.90;99.90
23507;DHT22;11930;53.076;18.250;2023-08-07T11:13:43;16.90;99.90
23507;DHT22;11930;53.076;18.250;2023-08-07T11:16:10;16.80;99.90
23507;DHT22;11930;53.076;18.250;2023-08-07T11:18:37;16.70;99.90
23507;DHT22;11930;53.076;18.250;2023-08-07T11:21:07;16.60;99.90
23507;DHT22;11930;53.076;18.250;2023-08-07T11:23:34;16.40;99.90
23507;DHT22;11930;53.076;18.250;2023-08-07T11:26:01;16.30;99.90
23507;DHT22;11930;53.076;18.250;2023-08-07T11:28:29;16.30;99.90
23507;DHT22;11930;53.076;18.250;2023-08-07T11:30:56;16.30;99.90
23507;DHT22;11930;53.076;18.250;2023-08-07T11:33:25;16.30;99.90
23507;DHT22;11930;53.076;18.250;2023-08-07T11:35:52;16.40;99.90
23507;DHT22;11930;53.076;18.250;2023-08-07T11:38:37;16.40;99.90
23507;DHT22;11930;53.076;18.250;2023-08-07T11:41:05;16.50;99.90
23507;DHT22;11930;53.076;18.250;2023-08-07T11:43:33;16.60;99.90
23507;DHT22;11930;53.076;18.250;2023-08-07T11:46:02;16.90;99.90
23507;DHT22;11930;53.076;18.250;2023-08-07T11:48:30;16.90;99.90
23507;DHT22;11930;53.076;18.250;2023-08-07T11:50:57;17.10;99.90
23507;DHT22;11930;53.076;18.250;2023-08-07T11:53:25;17.20;99.90
23507;DHT22;11930;53.076;18.250;2023-08-07T11:58:18;17.70;99.90
23507;DHT22;11930;53.076;18.250;2023-08-07T12:00:44;17.70;99.90
23507;DHT22;11930;53.076;18.250;2023-08-07T12:03:38;17.80;99.90
23507;DHT22;11930;53.076;18.250;2023-08-07T12:06:06;17.90;99.90
23507;DHT22;11930;53.076;18.250;2023-08-07T12:08:39;17.90;99.90
23507;DHT22;11930;53.076;18.250;2023-08-07T12:11:08;17.90;99.90
23507;DHT22;11930;53.076;18.250;2023-08-07T12:13:42;18.00;99.90
23507;DHT22;11930;53.076;18.250;2023-08-07T12:16:09;18.00;99.90
23507;DHT22;11930;53.076;18.250;2023-08-07T12:18:36;18.00;99.90
23507;DHT22;11930;53.076;18.250;2023-08-07T12:21:04;18.10;99.90
23507;DHT22;11930;53.076;18.250;2023-08-07T12:23:33;18.20;99.90
23507;DHT22;11930;53.076;18.250;2023-08-07T12:26:00;18.30;99.90
23507;DHT22;11930;53.076;18.250;2023-08-07T12:28:27;18.40;99.90
23507;DHT22;11930;53.076;18.250;2023-08-07T12:30:53;18.60;99.90
23507;DHT22;11930;53.076;18.250;2023-08-07T12:33:20;18.90;99.90
23507;DHT22;11930;53.076;18.250;2023-08-07T12:35:46;19.10;99.90
23507;DHT22;11930;53.076;18.250;2023-08-07T12:38:12;19.20;99.90
23507;DHT22;11930;53.076;18.250;2023-08-07T12:40:43;19.30;99.90
23507;DHT22;11930;53.076;18.250;2023-08-07T12:43:10;19.50;99.90
23507;DHT22;11930;53.076;18.250;2023-08-07T12:45:36;19.70;99.90
23507;DHT22;11930;53.076;18.250;2023-08-07T12:48:04;19.90;99.90
23507;DHT22;11930;53.076;18.250;2023-08-07T12:50:30;20.10;99.90
23507;DHT22;11930;53.076;18.250;2023-08-07T12:52:57;20.20;99.90
23507;DHT22;11930;53.076;18.250;2023-08-07T12:57:49;20.20;99.90
23507;DHT22;11930;53.076;18.250;2023-08-07T13:00:16;20.20;99.90
23507;DHT22;11930;53.076;18.250;2023-08-07T13:02:44;20.20;99.90
23507;DHT22;11930;53.076;18.250;2023-08-07T13:05:11;20.20;99.90
23507;DHT22;11930;53.076;18.250;2023-08-07T13:07:40;20.00;99.90
23507;DHT22;11930;53.076;18.250;2023-08-07T13:10:07;19.90;99.90
23507;DHT22;11930;53.076;18.250;2023-08-07T13:12:35;19.80;99.90
23507;DHT22;11930;53.076;18.250;2023-08-07T13:15:06;19.70;99.90
23507;DHT22;11930;53.076;18.250;2023-08-07T13:17:34;19.50;99.90
23507;DHT22;11930;53.076;18.250;2023-08-07T13:20:03;19.30;99.90
23507;DHT22;11930;53.076;18.250;2023-08-07T13:22:41;19.10;99.90
23507;DHT22;11930;53.076;18.250;2023-08-07T13:25:09;19.00;99.90
23507;DHT22;11930;53.076;18.250;2023-08-07T13:27:35;18.80;99.90
23507;DHT22;11930;53.076;18.250;2023-08-07T13:30:02;18.70;99.90
23507;DHT22;11930;53.076;18.250;2023-08-07T13:32:29;18.60;99.90
23507;DHT22;11930;53.076;18.250;2023-08-07T13:34:55;18.40;99.90
23507;DHT22;11930;53.076;18.250;2023-08-07T13:37:22;18.40;99.90
23507;DHT22;11930;53.076;18.250;2023-08-07T13:39:48;18.50;99.90
23507;DHT22;11930;53.076;18.250;2023-08-07T13:42:15;18.50;99.90
23507;DHT22;11930;53.076;18.250;2023-08-07T13:44:42;18.70;99.90
23507;DHT22;11930;53.076;18.250;2023-08-07T13:47:08;18.80;99.90
23507;DHT22;11930;53.076;18.250;2023-08-07T13:49:35;19.10;99.90
23507;DHT22;11930;53.076;18.250;2023-08-07T13:52:02;19.20;99.90
23507;DHT22;11930;53.076;18.250;2023-08-07T13:54:28;19.60;99.90
23507;DHT22;11930;53.076;18.250;2023-08-07T13:56:54;19.60;99.90
23507;DHT22;11930;53.076;18.250;2023-08-07T13:59:20;19.60;99.90
23507;DHT22;11930;53.076;18.250;2023-08-07T14:01:46;19.60;99.90
23507;DHT22;11930;53.076;18.250;2023-08-07T14:04:12;19.60;99.90
23507;DHT22;11930;53.076;18.250;2023-08-07T14:06:40;19.50;99.90
23507;DHT22;11930;53.076;18.250;2023-08-07T14:09:10;19.20;99.90
23507;DHT22;11930;53.076;18.250;2023-08-07T14:11:38;19.10;99.90
23507;DHT22;11930;53.076;18.250;2023-08-07T14:14:04;19.00;99.90
23507;DHT22;11930;53.076;18.250;2023-08-07T14:16:31;18.80;99.90
23507;DHT22;11930;53.076;18.250;2023-08-07T14:18:58;18.80;99.90
23507;DHT22;11930;53.076;18.250;2023-08-07T14:21:24;18.70;99.90
23507;DHT22;11930;53.076;18.250;2023-08-07T14:23:50;18.60;99.90
23507;DHT22;11930;53.076;18.250;2023-08-07T14:26:17;18.50;99.90
23507;DHT22;11930;53.076;18.250;2023-08-07T14:28:44;18.50;99.90
23507;DHT22;11930;53.076;18.250;2023-08-07T14:31:10;18.40;99.90
23507;DHT22;11930;53.076;18.250;2023-08-07T14:33:37;18.30;99.90
23507;DHT22;11930;53.076;18.250;2023-08-07T14:36:03;18.20;99.90
23507;DHT22;11930;53.076;18.250;2023-08-07T14:40:56;18.00;99.90
23507;DHT22;11930;53.076;18.250;2023-08-07T14:43:27;18.00;99.90
23507;DHT22;11930;53.076;18.250;2023-08-07T14:45:54;18.00;99.90
23507;DHT22;11930;53.076;18.250;2023-08-07T14:48:20;18.00;99.90
23507;DHT22;11930;53.076;18.250;2023-08-07T14:50:47;18.00;99.90
23507;DHT22;11930;53.076;18.250;2023-08-07T14:53:16;18.00;99.90
23507;DHT22;11930;53.076;18.250;2023-08-07T14:55:44;18.00;99.90
23507;DHT22;11930;53.076;18.250;2023-08-07T14:58:11;18.10;99.90
23507;DHT22;11930;53.076;18.250;2023-08-07T15:00:37;18.10;99.90
23507;DHT22;11930;53.076;18.250;2023-08-07T15:03:03;18.20;99.90
23507;DHT22;11930;53.076;18.250;2023-08-07T15:05:29;18.20;99.90
23507;DHT22;11930;53.076;18.250;2023-08-07T15:07:55;18.30;99.90
23507;DHT22;11930;53.076;18.250;2023-08-07T15:10:21;18.30;99.90
23507;DHT22;11930;53.076;18.250;2023-08-07T15:12:47;18.30;99.90
23507;DHT22;11930;53.076;18.250;2023-08-07T15:15:14;18.30;99.90
23507;DHT22;11930;53.076;18.250;2023-08-07T15:17:40;18.30;99.90
23507;DHT22;11930;53.076;18.250;2023-08-07T15:20:07;18.40;99.90
23507;DHT22;11930;53.076;18.250;2023-08-07T15:22:33;18.40;99.90
23507;DHT22;11930;53.076;18.250;2023-08-07T15:25:00;18.40;99.90
23507;DHT22;11930;53.076;18.250;2023-08-07T15:27:26;18.30;99.90
23507;DHT22;11930;53.076;18.250;2023-08-07T15:29:52;18.30;99.90
23507;DHT22;11930;53.076;18.250;2023-08-07T15:32:18;18.30;99.90
23507;DHT22;11930;53.076;18.250;2023-08-07T15:34:45;18.30;99.90
23507;DHT22;11930;53.076;18.250;2023-08-07T15:37:12;18.20;99.90
23507;DHT22;11930;53.076;18.250;2023-08-07T15:39:38;18.20;99.90